GIBO2: Ft Gibson Lake, OK

Data processed at Sun Apr 30 2017 21:58


All information presented herein is the property of the government of the United States of America and may be revised or deleted at any time without prior notice.
Dissemination of this information without the expressed written consent of the Public Affairs Office, Tulsa District U.S. Army Corps of Engineers is strictly prohibited.
These data are gathered electronically and, as presented, have not undergone any form of quality control. These data are not guaranteed to be valid or correct.
Go to home page.
Go to station list.
Go to station map.

Upstream stations:

Downstream station:
Previous Day
Next Day
Current Day
    
SHEF ID:       GIBO2     Ft Gibson Lake, OK
STATION TYPE:  RESERVOIR
Normal Pool:  Bottom =   551.00, Top =   554.00

               PRECIP ELEVATION   STORAGE   TW-ELEV    INFLOW   RELEASE  AIR-TEMP  WIND-DIRWIND-SPEED REL-HUMID SOLAR-RAD   VOLTAGE  BAT-LOAD
                   in        ft     ac-ft        ft       cfs       cfs         F       deg       mph         %      W/m2      volt      volt
              Ccp-Rev   Ccp-Rev   Ccp-Rev   Ccp-Rev  Regi-Rev  Regi-Rev   Ccp-Rev   Ccp-Rev   Ccp-Rev   Ccp-Rev   Ccp-Rev   Ccp-Rev   Ccp-Rev
(US/Central)
04/30 00:00      0.01    567.67    701637    497.22     89956         0     66.04    108.90      3.01     99.99      0.00     13.70     13.48
04/30 01:00      0.00    567.85    707235    497.14     87916         0     63.84    144.60      1.18    100.54      0.00     13.70     13.48
04/30 02:00      0.00    568.04    713188    497.12     81648         0     57.92    143.20      2.56     99.82      0.00     13.70     13.48
04/30 03:00      0.01    568.23    719306    497.17     69253         0     55.71    164.00      2.61     99.57      0.00     13.70     13.48
04/30 04:00      0.00    568.42    725424    497.14     72070         0     55.38    146.40      2.56     99.39      0.00     13.69     13.48
04/30 05:00      0.00    568.57    730254    497.08     75615         0     54.73    143.60      2.48     99.21      0.00     13.70     13.48
04/30 06:00      0.00    568.78    737016    497.02     71317         0     54.61    147.80      3.36     99.15      0.00     13.69     13.48
04/30 07:00      0.00    569.01    744434    496.98     76294         0     52.95    137.80      3.29     98.40      1.00     13.69     13.48
04/30 08:00      0.00    569.14    748776    497.30     81181         0     52.84    145.10      3.38     84.97     18.00     13.69     13.48
04/30 09:00      0.00    569.36    756124    497.27     84682     10000     54.39    146.00      4.55     75.40     69.00     13.69     13.48
04/30 10:00      0.01    569.50    760800    498.75     86855     26300     55.60    142.80      4.64     60.01    138.00     13.69     13.48
04/30 11:00      0.00    569.68    766812    499.48     96472     26580     54.39    141.00      4.86     56.29    268.00     13.69     13.48
04/30 12:00      0.00    569.83    771822    501.07     98866     40000     54.18    143.00      4.94     45.67    319.00     13.69     13.48
04/30 13:00      0.00    569.98    776832    501.74    106199     40000     54.18    139.90      5.29     39.99    673.00     13.69     13.48
04/30 14:00      0.00    570.15    782690    502.06    111080     40000     53.85    142.30      5.72     43.71    380.00     13.69     13.48
04/30 15:00      0.00    570.34    789264    502.28    114865     40000     55.92    144.30      4.54     35.47    383.00     13.69     13.48
04/30 16:00      0.00    570.54    796184    502.51    118650     40000     56.59    144.20      4.08     34.00    150.00     13.69     13.12
04/30 17:00      0.01    570.73    802758    502.70    119836     40000     56.80    142.70      4.37     32.96     77.00     13.69     13.48
04/30 18:00      0.00    570.92    809332    502.82    119836     40000     55.49    155.60      3.60     33.51     38.00     13.69     13.48
04/30 19:00      0.00    571.10    815680    502.94    117905     40000     55.17    150.20      4.50     31.07     72.00     13.69     13.48
04/30 20:00      0.00    571.32    823556    503.08      -901      -901     54.18    142.80      3.70     34.13     33.00     13.68     13.48
04/30 21:00      0.00    571.48    829284    503.16      ----      ----     52.30    144.20      3.61     42.98      1.00     13.69     13.48
04/30 22:00      ----      ----      ----      ----      ----      ----      ----      ----      ----      ----      ----      ----      ----
04/30 23:00      ----      ----      ----      ----      ----      ----      ----      ----      ----      ----      ----      ----      ----